Startpagina
METAR-TAF:

METAR-TAF

Vliegvelden :

Amman, Jordanië

breedte: 31-59N, lengte: 035-59E, hoogte: 767 m

Actueel weer

Dit bericht is 1 uur en het 8 minuten geleden gemaakt, om 10:00 UTC
Wind 6 kt uit het noordnoordwesten
Temperatuur 22°C
Vochtigheid 19%
Druk 1019 hPa
Zicht: 5000 m
Heiigheid

METAR: OJAM 291000Z 34006KT 5000 HZ NSC 22/M03 Q1019 NOSIG

Tijdstip: 13:08 (11:08 UTC)

Verwachting

Dit bericht is 6 uur en het 39 minuten geleden gemaakt, om 04:29 UTC
Verwachting geldig van 29 om 06 UTC tot 30 om 12 UTC
Wind 14 kt uit het westnoordwesten
Zicht: 5000 m
Heiigheid
Tijdelijke
van 29 om 18 UTC tot 30 om 12 UTC
Wind 2 kt uit variabele richting
Zicht: 6000 m
Kans 30%
van 30 om 02 UTC tot 30 om 06 UTC
Zicht: 3000 m
rook

TAF: OJAM 290429Z 2906/3012 29014KT 5000 HZ NSC TEMPO 2918/3012 VRB02KT 6000 NSC PROB30 3002/3006 3000 FU

Waarnemingen en weersverwachtingen van meer dan 4000 vliegvelden (METAR en TAF).

De beschikbare stations zijn de gele en rode punten op de kaart.

Ga met uw muis naar het station om de naam te zien.

Klik dan om waarnemingen en weersverwachtingen te zien.

kaart wijzigen: klik op de groene knoppen met een zwart kruis om in te zoomen, op de groene knop met een streepje om uit te zoomen of op de groene pijlen voor aangrenzende kaarten.


METAR-TAF: